Terminal Aerodrome Forecast
Issued by NWS

Current Version | Previous Version | Text Only | Print | Product List | Glossary On
Versions: 1 2 3 4 5 6 7 8 9 10 11 12 13 14 15 16 17 18 19 20 21 22 23 24
000
FTUS45 KRIW 222300
TAFJAC
TAF
KJAC 222326Z 2300/2324 18008KT P6SM -SHRA SCT010 OVC040
     FM230500 18007KT 6SM BR VCSH SCT040 BKN100
     FM231000 19005KT 3SM BR SCT010 BKN040
     FM231500 24007KT P6SM FEW020 SCT050
     FM231800 24011KT P6SM VCSH SCT040 BKN050
      AMD LTD TO CLD VIS AND WIND=

USA.gov is the U.S. government's official web portal to all federal, state and local government web resources and services.